createdAt,value
2022-10-23T00:01:29.213Z,4.25
2022-10-23T00:04:02.830Z,3.30
2022-10-23T00:06:31.780Z,4.85
2022-10-23T00:08:58.749Z,3.80
2022-10-23T00:11:28.720Z,3.90
2022-10-23T00:13:58.182Z,3.72
2022-10-23T00:16:24.979Z,3.75
2022-10-23T00:18:51.687Z,4.32
2022-10-23T00:21:18.759Z,3.78
2022-10-23T00:23:46.305Z,3.95
2022-10-23T00:26:16.798Z,4.22
2022-10-23T00:28:45.585Z,3.70
2022-10-23T00:31:12.997Z,4.15
2022-10-23T00:33:39.985Z,4.18
2022-10-23T00:36:08.505Z,4.20
2022-10-23T00:38:35.675Z,3.90
2022-10-23T00:41:02.978Z,4.05
2022-10-23T00:43:31.306Z,4.00
2022-10-23T00:45:58.710Z,4.13
2022-10-23T00:48:27.330Z,3.33
2022-10-23T00:50:54.596Z,3.85
2022-10-23T00:53:22.240Z,3.95
2022-10-23T00:55:51.399Z,4.05
2022-10-23T00:58:20.152Z,4.18
2022-10-23T01:00:55.782Z,3.47
2022-10-23T01:03:27.641Z,3.95
2022-10-23T01:06:07.456Z,3.58
2022-10-23T01:09:08.077Z,3.58
2022-10-23T01:12:11.113Z,4.35
2022-10-23T01:14:40.789Z,4.32
2022-10-23T01:17:25.658Z,3.80
2022-10-23T01:20:06.951Z,4.10
2022-10-23T01:22:47.168Z,3.67
2022-10-23T01:25:19.795Z,3.92
2022-10-23T01:27:51.088Z,3.90
2022-10-23T01:30:18.267Z,3.95
2022-10-23T01:33:01.135Z,3.92
2022-10-23T01:35:45.744Z,3.95
2022-10-23T01:38:18.354Z,3.05
2022-10-23T01:40:53.447Z,3.75
2022-10-23T01:45:56.098Z,5.03
2022-10-23T01:48:27.367Z,4.55
2022-10-23T01:50:57.954Z,4.55
2022-10-23T01:53:27.682Z,5.03
2022-10-23T01:55:55.843Z,4.95
2022-10-23T01:58:24.162Z,5.43
2022-10-23T02:00:51.888Z,5.63
2022-10-23T02:03:19.784Z,5.50
2022-10-23T02:05:46.862Z,5.07
2022-10-23T02:08:13.913Z,5.00
2022-10-23T02:11:01.254Z,5.30
2022-10-23T02:13:38.313Z,5.13
2022-10-23T02:16:14.016Z,5.65
2022-10-23T02:19:03.097Z,5.30
2022-10-23T02:21:54.024Z,5.50
2022-10-23T02:24:36.514Z,4.95
2022-10-23T02:27:10.259Z,5.25
2022-10-23T02:29:51.753Z,6.13
2022-10-23T02:32:20.660Z,5.70
2022-10-23T02:34:48.051Z,6.10
2022-10-23T02:37:15.227Z,6.50
2022-10-23T02:39:42.294Z,6.20
2022-10-23T02:42:20.448Z,5.43
2022-10-23T02:45:07.211Z,6.22
2022-10-23T02:47:52.849Z,4.80
2022-10-23T02:50:25.548Z,4.68
2022-10-23T02:53:34.720Z,4.93
2022-10-23T02:56:22.691Z,5.07
2022-10-23T02:59:17.016Z,5.07
2022-10-23T03:01:50.197Z,5.43
2022-10-23T03:04:19.342Z,5.03
2022-10-23T03:06:46.771Z,5.20
2022-10-23T03:09:13.503Z,4.63
2022-10-23T03:11:40.299Z,4.50
2022-10-23T03:14:07.187Z,4.85
2022-10-23T03:16:33.971Z,4.75
2022-10-23T03:19:00.822Z,5.22
2022-10-23T03:21:27.572Z,4.82
2022-10-23T03:23:54.374Z,4.72
2022-10-23T03:26:21.264Z,4.93
2022-10-23T03:28:47.982Z,4.97
2022-10-23T03:31:14.764Z,5.47
2022-10-23T03:33:41.532Z,4.95
2022-10-23T03:36:08.853Z,4.80
2022-10-23T03:38:35.908Z,5.47
2022-10-23T03:41:02.698Z,5.00
2022-10-23T03:43:29.449Z,5.13
2022-10-23T03:45:57.206Z,5.28
2022-10-23T03:48:24.941Z,4.70
2022-10-23T03:50:51.973Z,4.97
2022-10-23T03:53:18.818Z,4.82
2022-10-23T03:55:45.585Z,5.78
2022-10-23T03:58:12.416Z,5.20
2022-10-23T04:00:39.258Z,5.57
2022-10-23T04:03:06.037Z,5.20
2022-10-23T04:05:32.896Z,5.50
2022-10-23T04:07:59.572Z,4.90
2022-10-23T04:10:26.479Z,4.82
2022-10-23T04:12:53.262Z,4.68
2022-10-23T04:15:20.028Z,4.90
2022-10-23T04:17:46.821Z,5.47
2022-10-23T04:20:13.633Z,5.78
2022-10-23T04:22:40.652Z,4.40
2022-10-23T04:25:08.138Z,5.07
2022-10-23T04:27:35.014Z,4.43
2022-10-23T04:30:03.578Z,4.60
2022-10-23T04:32:31.413Z,4.95
2022-10-23T04:34:58.223Z,4.30
2022-10-23T04:37:24.962Z,4.75
2022-10-23T04:39:51.808Z,5.05
2022-10-23T04:42:18.589Z,4.90
2022-10-23T04:44:45.416Z,5.50
2022-10-23T04:47:12.231Z,5.30
2022-10-23T04:49:38.960Z,4.45
2022-10-23T04:52:05.663Z,5.65
2022-10-23T04:54:39.290Z,5.07
2022-10-23T04:57:06.197Z,4.13
2022-10-23T04:59:32.977Z,4.50
2022-10-23T05:01:59.713Z,4.90
2022-10-23T05:04:26.554Z,3.72
2022-10-23T05:06:53.431Z,3.88
2022-10-23T05:09:20.215Z,4.45
2022-10-23T05:11:46.949Z,4.28
2022-10-23T05:14:13.990Z,4.00
2022-10-23T05:17:00.986Z,4.20
2022-10-23T05:19:34.796Z,3.95
2022-10-23T05:22:02.381Z,4.00
2022-10-23T05:24:29.365Z,4.10
2022-10-23T05:26:56.910Z,3.65
2022-10-23T05:29:23.771Z,4.22
2022-10-23T05:31:54.473Z,4.05
2022-10-23T05:34:25.591Z,3.80
2022-10-23T05:36:53.296Z,4.28
2022-10-23T05:39:20.798Z,4.57
2022-10-23T05:41:47.518Z,4.60
2022-10-23T05:44:14.223Z,3.72
2022-10-23T05:46:42.188Z,3.65
2022-10-23T05:49:09.782Z,3.70
2022-10-23T05:51:38.007Z,4.07
2022-10-23T05:54:08.133Z,3.88
2022-10-23T05:56:41.534Z,3.75
2022-10-23T05:59:08.914Z,4.03
2022-10-23T06:01:36.365Z,4.28
2022-10-23T06:04:04.718Z,4.53
2022-10-23T06:06:31.593Z,4.13
2022-10-23T06:08:58.394Z,3.83
2022-10-23T06:11:25.197Z,4.25
2022-10-23T06:14:33.311Z,5.00
2022-10-23T06:17:00.180Z,4.55
2022-10-23T06:19:27.493Z,4.10
2022-10-23T06:21:54.348Z,4.35
2022-10-23T06:24:21.132Z,3.83
2022-10-23T06:26:47.995Z,4.50
2022-10-23T06:29:15.211Z,4.35
2022-10-23T06:31:42.008Z,4.55
2022-10-23T06:34:11.477Z,5.10
2022-10-23T06:36:38.661Z,4.68
2022-10-23T06:39:06.339Z,4.35
2022-10-23T06:41:33.211Z,5.28
2022-10-23T06:44:00.048Z,6.10
2022-10-23T06:46:27.025Z,6.65
2022-10-23T06:48:54.024Z,5.50
2022-10-23T06:51:22.469Z,6.18
2022-10-23T06:53:49.375Z,5.85
2022-10-23T06:56:16.212Z,5.05
2022-10-23T06:58:43.078Z,6.25
2022-10-23T07:01:12.714Z,6.03
2022-10-23T07:03:40.101Z,5.50
2022-10-23T07:06:09.513Z,5.00
2022-10-23T07:08:37.723Z,5.68
2022-10-23T07:11:21.187Z,5.25
2022-10-23T07:13:48.081Z,5.15
2022-10-23T07:16:20.777Z,5.00
2022-10-23T07:18:49.224Z,4.88
2022-10-23T07:21:16.477Z,5.63
2022-10-23T07:23:43.344Z,5.72
2022-10-23T07:26:16.836Z,5.38
2022-10-23T07:28:45.152Z,5.90
2022-10-23T07:31:12.704Z,6.15
2022-10-23T07:33:40.010Z,5.80
2022-10-23T07:36:08.601Z,5.50
2022-10-23T07:38:35.913Z,5.68
2022-10-23T07:41:13.230Z,5.38
2022-10-23T07:43:40.172Z,5.97
2022-10-23T07:46:09.712Z,4.25
2022-10-23T07:48:38.177Z,3.88
2022-10-23T07:51:08.657Z,3.50
2022-10-23T07:54:54.240Z,4.32
2022-10-23T07:57:43.424Z,3.80
2022-10-23T08:00:11.890Z,4.07
2022-10-23T08:02:38.873Z,3.88
2022-10-23T08:05:06.111Z,4.85
2022-10-23T08:07:35.807Z,4.80
2022-10-23T08:10:03.372Z,5.00
2022-10-23T08:12:30.426Z,4.78
2022-10-23T08:14:57.289Z,4.78
2022-10-23T08:17:26.327Z,3.58
2022-10-23T08:19:55.317Z,3.53
2022-10-23T08:22:22.592Z,3.80
2022-10-23T08:24:49.492Z,4.18
2022-10-23T08:27:16.334Z,3.33
2022-10-23T08:29:43.273Z,3.28
2022-10-23T08:32:10.197Z,2.85
2022-10-23T08:34:37.966Z,3.47
2022-10-23T08:37:05.075Z,3.30
2022-10-23T08:39:31.903Z,3.30
2022-10-23T08:41:58.789Z,3.42
2022-10-23T08:44:50.202Z,3.38
2022-10-23T08:47:29.833Z,3.10
2022-10-23T08:50:05.496Z,3.10
2022-10-23T08:52:39.564Z,3.25
2022-10-23T08:55:17.772Z,2.92
2022-10-23T08:58:23.552Z,2.72
2022-10-23T09:00:51.664Z,2.90
2022-10-23T09:03:18.797Z,3.22
2022-10-23T09:05:57.547Z,2.83
2022-10-23T09:08:49.216Z,2.97
2022-10-23T09:11:24.342Z,3.45
2022-10-23T09:16:58.469Z,3.13
2022-10-23T09:19:28.139Z,2.20
2022-10-23T09:21:56.511Z,3.17
2022-10-23T09:24:25.060Z,2.70
2022-10-23T09:26:54.125Z,2.60
2022-10-23T09:29:35.894Z,2.75
2022-10-23T09:32:06.361Z,2.70
2022-10-23T09:34:34.955Z,2.72
2022-10-23T09:37:17.287Z,2.95
2022-10-23T09:39:44.180Z,2.42
2022-10-23T09:42:24.731Z,2.70
2022-10-23T09:44:53.532Z,3.35
2022-10-23T09:47:24.089Z,2.80
2022-10-23T09:49:56.907Z,3.05
2022-10-23T09:52:38.309Z,2.60
2022-10-23T09:55:21.494Z,2.90
2022-10-23T09:57:48.503Z,2.50
2022-10-23T10:00:19.676Z,2.55
2022-10-23T10:03:02.938Z,3.70
2022-10-23T10:05:33.015Z,2.70
2022-10-23T10:08:26.016Z,3.03
2022-10-23T10:11:01.552Z,2.67
2022-10-23T10:13:36.626Z,2.55
2022-10-23T10:18:50.791Z,1.90
2022-10-23T10:21:42.516Z,2.20
2022-10-23T10:24:39.217Z,2.10
2022-10-23T10:27:06.216Z,1.98
2022-10-23T10:29:48.931Z,2.08
2022-10-23T10:32:42.837Z,1.90
2022-10-23T10:35:37.614Z,1.75
2022-10-23T10:38:24.245Z,1.98
2022-10-23T10:41:27.967Z,1.90
2022-10-23T10:44:01.117Z,2.00
2022-10-23T10:46:44.462Z,2.10
2022-10-23T10:49:17.504Z,1.48
2022-10-23T10:52:07.572Z,1.90
2022-10-23T10:54:49.662Z,2.00
2022-10-23T10:57:34.964Z,1.40
2022-10-23T11:00:06.619Z,1.60
2022-10-23T11:02:43.665Z,1.73
2022-10-23T11:05:32.331Z,1.85
2022-10-23T11:08:24.998Z,1.48
2022-10-23T11:10:57.966Z,1.70
2022-10-23T11:13:40.449Z,2.03
2022-10-23T11:16:30.378Z,2.10
2022-10-23T11:19:16.183Z,1.90
2022-10-23T11:22:02.730Z,2.17
2022-10-23T11:24:35.492Z,1.55
2022-10-23T11:27:34.474Z,2.10
2022-10-23T11:30:45.506Z,1.63
2022-10-23T11:34:03.720Z,1.52
2022-10-23T11:36:48.993Z,2.10
2022-10-23T11:39:26.061Z,1.40
2022-10-23T11:42:03.937Z,1.60
2022-10-23T11:44:43.009Z,1.70
2022-10-23T11:47:27.498Z,1.83
2022-10-23T11:50:09.669Z,2.40
2022-10-23T11:53:12.928Z,1.95
2022-10-23T11:55:56.206Z,1.83
2022-10-23T11:58:31.749Z,1.60
2022-10-23T12:01:06.358Z,1.80
2022-10-23T12:03:54.792Z,1.50
2022-10-23T12:06:32.601Z,1.75
2022-10-23T12:09:06.794Z,1.80
2022-10-23T12:11:49.735Z,1.90
2022-10-23T12:14:34.866Z,2.05
2022-10-23T12:17:02.208Z,1.63
2022-10-23T12:19:44.642Z,1.75
2022-10-23T12:22:11.876Z,1.80
2022-10-23T12:24:53.963Z,1.88
2022-10-23T12:27:45.125Z,1.60
2022-10-23T12:30:22.239Z,1.73
2022-10-23T12:33:07.792Z,1.70
2022-10-23T12:38:26.397Z,1.73
2022-10-23T12:41:17.712Z,1.50
2022-10-23T12:43:51.723Z,1.60
2022-10-23T12:47:02.303Z,1.95
2022-10-23T12:49:35.581Z,1.58
2022-10-23T12:52:15.361Z,1.63
2022-10-23T12:54:42.609Z,1.95
2022-10-23T12:57:41.993Z,1.75
2022-10-23T13:00:11.109Z,1.60
2022-10-23T13:02:38.260Z,1.70
2022-10-23T13:05:13.301Z,1.70
2022-10-23T13:07:46.297Z,1.70
2022-10-23T13:10:19.953Z,1.70
2022-10-23T13:12:58.225Z,3.75
2022-10-23T13:15:26.898Z,1.65
2022-10-23T13:17:53.836Z,1.60
2022-10-23T13:20:23.620Z,1.85
2022-10-23T13:23:00.584Z,1.60
2022-10-23T13:25:30.915Z,1.80
2022-10-23T13:28:23.643Z,1.60
2022-10-23T13:31:24.140Z,1.80
2022-10-23T13:33:59.076Z,1.48
2022-10-23T13:36:28.441Z,1.40
2022-10-23T13:39:11.934Z,1.60
2022-10-23T13:41:41.701Z,1.42
2022-10-23T13:44:16.195Z,1.67
2022-10-23T13:46:44.242Z,1.02
2022-10-23T13:49:11.247Z,2.08
2022-10-23T13:51:57.025Z,1.95
2022-10-23T13:56:55.288Z,1.75
2022-10-23T13:59:22.465Z,1.67
2022-10-23T14:01:50.958Z,1.73
2022-10-23T14:04:19.070Z,1.90
2022-10-23T14:06:47.083Z,1.63
2022-10-23T14:09:16.737Z,1.60
2022-10-23T14:11:44.367Z,1.45
2022-10-23T14:14:11.363Z,2.13
2022-10-23T14:16:41.270Z,1.27
2022-10-23T14:19:09.077Z,1.63
2022-10-23T14:21:36.168Z,1.80
2022-10-23T14:24:03.103Z,1.65
2022-10-23T14:26:30.457Z,1.80
2022-10-23T14:29:02.272Z,1.70
2022-10-23T14:31:34.051Z,1.77
2022-10-23T14:34:02.025Z,1.90
2022-10-23T14:36:38.627Z,1.98
2022-10-23T14:39:16.630Z,1.67
2022-10-23T14:41:43.815Z,1.35
2022-10-23T14:44:10.842Z,1.50
2022-10-23T14:46:38.804Z,2.25
2022-10-23T14:49:06.487Z,1.67
2022-10-23T14:51:33.894Z,1.42
2022-10-23T14:54:03.521Z,1.63
2022-10-23T14:56:36.245Z,1.60
2022-10-23T14:59:04.375Z,1.88
2022-10-23T15:01:43.738Z,1.25
2022-10-23T15:04:14.809Z,1.70
2022-10-23T15:06:47.248Z,1.30
2022-10-23T15:09:19.205Z,1.60
2022-10-23T15:11:47.933Z,1.55
2022-10-23T15:14:14.957Z,1.65
2022-10-23T15:16:42.515Z,1.23
2022-10-23T15:19:17.360Z,1.25
2022-10-23T15:21:47.082Z,1.50
2022-10-23T15:24:14.939Z,1.30
2022-10-23T15:26:43.852Z,1.55
2022-10-23T15:29:12.073Z,1.40
2022-10-23T15:31:41.261Z,2.08
2022-10-23T15:34:14.615Z,1.60
2022-10-23T15:36:43.124Z,1.60
2022-10-23T15:39:11.724Z,2.45
2022-10-23T15:41:41.864Z,2.00
2022-10-23T15:44:12.964Z,1.85
2022-10-23T15:46:40.192Z,1.70
2022-10-23T15:49:08.816Z,2.00
2022-10-23T15:51:37.219Z,1.88
2022-10-23T15:54:09.258Z,1.52
2022-10-23T15:56:36.626Z,1.95
2022-10-23T15:59:04.419Z,1.75
2022-10-23T16:01:35.109Z,1.90
2022-10-23T16:04:02.561Z,1.40
2022-10-23T16:06:30.330Z,1.63
2022-10-23T16:08:57.580Z,1.80
2022-10-23T16:11:27.401Z,1.42
2022-10-23T16:13:56.370Z,1.92
2022-10-23T16:16:24.505Z,1.50
2022-10-23T16:18:52.087Z,2.00
2022-10-23T16:21:25.171Z,1.75
2022-10-23T16:23:53.786Z,1.65
2022-10-23T16:26:21.470Z,1.73
2022-10-23T16:28:52.583Z,2.10
2022-10-23T16:31:21.302Z,1.85
2022-10-23T16:33:49.183Z,1.70
2022-10-23T16:36:17.891Z,1.95
2022-10-23T16:38:44.969Z,2.03
2022-10-23T16:41:12.285Z,2.55
2022-10-23T16:43:39.653Z,2.63
2022-10-23T16:46:15.998Z,2.33
2022-10-23T16:48:44.108Z,3.30
2022-10-23T16:51:16.785Z,3.70
2022-10-23T16:53:45.906Z,2.58
2022-10-23T16:56:16.032Z,2.28
2022-10-23T16:58:44.455Z,4.70
2022-10-23T17:01:13.171Z,4.45
2022-10-23T17:03:43.579Z,4.50
2022-10-23T17:06:13.973Z,4.30
2022-10-23T17:08:41.956Z,3.75
2022-10-23T17:11:16.112Z,2.72
2022-10-23T17:13:46.754Z,1.92
2022-10-23T17:16:22.787Z,1.70
2022-10-23T17:18:50.838Z,2.00
2022-10-23T17:21:20.685Z,2.20
2022-10-23T17:24:05.101Z,1.80
2022-10-23T17:26:44.358Z,2.33
2022-10-23T17:29:15.253Z,2.30
2022-10-23T17:31:47.975Z,2.88
2022-10-23T17:34:19.265Z,2.58
2022-10-23T17:36:49.409Z,2.60
2022-10-23T17:39:19.791Z,5.32
2022-10-23T17:41:47.481Z,3.80
2022-10-23T17:44:14.451Z,2.70
2022-10-23T17:46:41.574Z,2.55
2022-10-23T17:49:10.044Z,2.50
2022-10-23T17:51:37.369Z,2.80
2022-10-23T17:54:07.941Z,2.65
2022-10-23T17:56:37.691Z,2.78
2022-10-23T17:59:08.057Z,2.30
2022-10-23T18:01:35.634Z,2.30
2022-10-23T18:04:04.502Z,2.60
2022-10-23T18:06:40.381Z,2.10
2022-10-23T18:09:07.679Z,2.30
2022-10-23T18:11:38.010Z,2.00
2022-10-23T18:14:06.957Z,1.90
2022-10-23T18:16:36.280Z,2.05
2022-10-23T18:19:04.483Z,2.08
2022-10-23T18:21:31.923Z,3.10
2022-10-23T18:24:00.638Z,3.03
2022-10-23T18:26:31.140Z,2.28
2022-10-23T18:29:00.966Z,2.85
2022-10-23T18:31:30.588Z,2.25
2022-10-23T18:33:59.923Z,2.22
2022-10-23T18:36:30.441Z,2.42
2022-10-23T18:39:01.058Z,2.75
2022-10-23T18:41:33.879Z,2.67
2022-10-23T18:44:01.681Z,2.15
2022-10-23T18:46:28.981Z,2.20
2022-10-23T18:48:56.210Z,2.55
2022-10-23T18:51:32.260Z,2.53
2022-10-23T18:54:02.595Z,2.50
2022-10-23T18:56:30.010Z,3.10
2022-10-23T18:59:00.021Z,2.42
2022-10-23T19:01:28.794Z,2.42
2022-10-23T19:03:58.071Z,2.47
2022-10-23T19:06:25.424Z,2.95
2022-10-23T19:08:53.070Z,2.63
2022-10-23T19:11:22.056Z,2.83
2022-10-23T19:13:49.807Z,3.00
2022-10-23T19:16:21.356Z,2.35
2022-10-23T19:19:22.970Z,2.67
2022-10-23T19:21:51.040Z,2.95
2022-10-23T19:24:29.656Z,3.10
2022-10-23T19:26:59.522Z,3.38
2022-10-23T19:29:27.358Z,3.30
2022-10-23T19:31:54.901Z,3.03
2022-10-23T19:34:25.288Z,4.07
2022-10-23T19:36:55.912Z,3.20
2022-10-23T19:39:23.968Z,3.08
2022-10-23T19:41:51.889Z,3.33
2022-10-23T19:44:19.851Z,3.20
2022-10-23T19:46:47.817Z,3.72
2022-10-23T19:49:16.040Z,3.60
2022-10-23T19:51:51.060Z,3.60
2022-10-23T19:54:20.504Z,4.65
2022-10-23T19:56:48.516Z,4.20
2022-10-23T19:59:16.154Z,3.33
2022-10-23T20:01:46.379Z,3.45
2022-10-23T20:04:18.458Z,3.78
2022-10-23T20:06:46.425Z,3.15
2022-10-23T20:09:14.009Z,3.67
2022-10-23T20:11:41.938Z,3.30
2022-10-23T20:14:09.010Z,3.10
2022-10-23T20:16:38.352Z,3.40
2022-10-23T20:19:08.636Z,2.90
2022-10-23T20:21:37.584Z,3.03
2022-10-23T20:24:05.170Z,2.92
2022-10-23T20:26:32.214Z,4.18
2022-10-23T20:28:59.566Z,3.53
2022-10-23T20:31:27.673Z,3.50
2022-10-23T20:33:56.078Z,3.30
2022-10-23T20:36:27.564Z,3.20
2022-10-23T20:38:55.623Z,3.67
2022-10-23T20:41:26.579Z,3.33
2022-10-23T20:43:56.184Z,3.15
2022-10-23T20:46:23.662Z,3.85
2022-10-23T20:48:51.356Z,3.22
2022-10-23T20:51:21.717Z,3.58
2022-10-23T20:53:53.339Z,3.47
2022-10-23T20:56:33.325Z,3.00
2022-10-23T20:59:05.679Z,3.40
2022-10-23T21:01:34.163Z,3.25
2022-10-23T21:04:02.806Z,3.55
2022-10-23T21:06:45.691Z,3.42
2022-10-23T21:09:20.794Z,3.38
2022-10-23T21:11:47.862Z,3.38
2022-10-23T21:14:14.936Z,3.25
2022-10-23T21:16:46.633Z,3.60
2022-10-23T21:19:15.963Z,3.60
2022-10-23T21:21:43.901Z,3.38
2022-10-23T21:24:15.760Z,2.88
2022-10-23T21:26:43.651Z,3.33
2022-10-23T21:29:19.770Z,3.50
2022-10-23T21:31:59.727Z,3.65
2022-10-23T21:34:28.210Z,3.60
2022-10-23T21:39:44.050Z,3.70
2022-10-23T21:42:12.238Z,3.40
2022-10-23T21:44:39.277Z,3.40
2022-10-23T21:47:06.255Z,3.53
2022-10-23T21:49:33.178Z,2.90
2022-10-23T21:52:00.168Z,3.47
2022-10-23T21:54:27.149Z,3.20
2022-10-23T21:56:54.262Z,3.25
2022-10-23T21:59:25.826Z,3.58
2022-10-23T22:01:54.922Z,2.80
2022-10-23T22:04:22.452Z,2.95
2022-10-23T22:06:49.954Z,2.65
2022-10-23T22:09:19.923Z,3.05
2022-10-23T22:11:51.138Z,2.53
2022-10-23T22:14:18.565Z,2.70
2022-10-23T22:16:45.773Z,2.70
2022-10-23T22:19:14.573Z,3.00
2022-10-23T22:21:42.215Z,2.60
2022-10-23T22:24:09.836Z,2.10
2022-10-23T22:26:46.184Z,2.70
2022-10-23T22:29:16.629Z,2.10
2022-10-23T22:31:47.122Z,2.60
2022-10-23T22:34:34.862Z,2.35
2022-10-23T22:37:06.817Z,2.35
2022-10-23T22:39:33.821Z,2.03
2022-10-23T22:42:00.777Z,2.45
2022-10-23T22:44:27.813Z,2.47
2022-10-23T22:46:54.757Z,2.28
2022-10-23T22:49:21.733Z,1.92
2022-10-23T22:51:48.706Z,1.70
2022-10-23T22:54:15.945Z,2.05
2022-10-23T22:56:42.953Z,2.10
2022-10-23T22:59:10.025Z,2.10
2022-10-23T23:01:43.242Z,1.92
2022-10-23T23:04:19.761Z,2.03
2022-10-23T23:06:59.899Z,2.17
2022-10-23T23:09:26.937Z,2.00
2022-10-23T23:11:53.957Z,2.00
2022-10-23T23:14:24.143Z,2.28
2022-10-23T23:16:52.997Z,2.13
2022-10-23T23:19:20.420Z,1.95
2022-10-23T23:21:47.430Z,1.90
2022-10-23T23:24:14.547Z,2.35
2022-10-23T23:26:41.438Z,1.90
2022-10-23T23:29:08.378Z,1.90
2022-10-23T23:31:35.341Z,2.50
2022-10-23T23:34:02.394Z,2.00
2022-10-23T23:36:30.191Z,1.88
2022-10-23T23:38:57.828Z,1.90
2022-10-23T23:41:26.499Z,2.30
2022-10-23T23:43:54.997Z,2.00
2022-10-23T23:46:22.747Z,2.00
2022-10-23T23:48:50.129Z,2.47
2022-10-23T23:51:20.039Z,2.20
2022-10-23T23:53:47.559Z,2.10
2022-10-23T23:56:14.511Z,2.38
2022-10-23T23:58:41.487Z,2.05
